sensor_id;sensor_type;location;lat;lon;timestamp;P1;durP1;ratioP1;P2;durP2;ratioP2
15982;SDS011;14442;50.196;8.096;2022-11-30T00:01:09;7.77;;;4.07;;
15982;SDS011;14442;50.196;8.096;2022-11-30T00:03:36;11.07;;;4.03;;
15982;SDS011;14442;50.196;8.096;2022-11-30T00:06:04;5.90;;;2.93;;
15982;SDS011;14442;50.196;8.096;2022-11-30T00:08:30;5.90;;;3.57;;
15982;SDS011;14442;50.196;8.096;2022-11-30T00:10:57;4.90;;;3.20;;
15982;SDS011;14442;50.196;8.096;2022-11-30T00:13:24;4.27;;;3.00;;
15982;SDS011;14442;50.196;8.096;2022-11-30T00:15:51;4.40;;;3.53;;
15982;SDS011;14442;50.196;8.096;2022-11-30T00:18:19;5.33;;;2.97;;
15982;SDS011;14442;50.196;8.096;2022-11-30T00:20:46;4.90;;;3.60;;
15982;SDS011;14442;50.196;8.096;2022-11-30T00:23:12;3.73;;;3.20;;
15982;SDS011;14442;50.196;8.096;2022-11-30T00:25:39;5.37;;;3.90;;
15982;SDS011;14442;50.196;8.096;2022-11-30T00:28:06;6.60;;;3.43;;
15982;SDS011;14442;50.196;8.096;2022-11-30T00:30:32;7.43;;;3.53;;
15982;SDS011;14442;50.196;8.096;2022-11-30T00:32:59;4.57;;;3.43;;
15982;SDS011;14442;50.196;8.096;2022-11-30T00:35:28;9.53;;;3.60;;
15982;SDS011;14442;50.196;8.096;2022-11-30T00:37:56;5.43;;;3.37;;
15982;SDS011;14442;50.196;8.096;2022-11-30T00:40:22;3.90;;;3.13;;
15982;SDS011;14442;50.196;8.096;2022-11-30T00:42:49;4.03;;;3.63;;
15982;SDS011;14442;50.196;8.096;2022-11-30T00:45:16;5.57;;;4.00;;
15982;SDS011;14442;50.196;8.096;2022-11-30T00:47:42;4.63;;;3.90;;
15982;SDS011;14442;50.196;8.096;2022-11-30T00:50:09;6.17;;;3.43;;
15982;SDS011;14442;50.196;8.096;2022-11-30T00:52:38;4.50;;;3.67;;
15982;SDS011;14442;50.196;8.096;2022-11-30T00:55:05;3.87;;;3.40;;
15982;SDS011;14442;50.196;8.096;2022-11-30T00:57:32;3.93;;;3.37;;
15982;SDS011;14442;50.196;8.096;2022-11-30T00:59:59;5.43;;;4.00;;
15982;SDS011;14442;50.196;8.096;2022-11-30T01:02:26;3.70;;;3.30;;
15982;SDS011;14442;50.196;8.096;2022-11-30T01:04:52;5.63;;;3.47;;
15982;SDS011;14442;50.196;8.096;2022-11-30T01:07:19;4.80;;;3.60;;
15982;SDS011;14442;50.196;8.096;2022-11-30T01:09:47;4.13;;;3.67;;
15982;SDS011;14442;50.196;8.096;2022-11-30T01:12:14;4.47;;;3.70;;
15982;SDS011;14442;50.196;8.096;2022-11-30T01:14:41;3.87;;;3.57;;
15982;SDS011;14442;50.196;8.096;2022-11-30T01:17:07;3.67;;;3.37;;
15982;SDS011;14442;50.196;8.096;2022-11-30T01:19:34;4.30;;;3.90;;
15982;SDS011;14442;50.196;8.096;2022-11-30T01:22:01;5.47;;;3.97;;
15982;SDS011;14442;50.196;8.096;2022-11-30T01:24:28;5.90;;;3.73;;
15982;SDS011;14442;50.196;8.096;2022-11-30T01:26:56;7.50;;;3.93;;
15982;SDS011;14442;50.196;8.096;2022-11-30T01:29:23;6.17;;;3.50;;
15982;SDS011;14442;50.196;8.096;2022-11-30T01:31:49;3.57;;;3.27;;
15982;SDS011;14442;50.196;8.096;2022-11-30T01:34:16;4.83;;;3.67;;
15982;SDS011;14442;50.196;8.096;2022-11-30T01:36:43;7.17;;;3.73;;
15982;SDS011;14442;50.196;8.096;2022-11-30T01:39:09;5.87;;;3.87;;
15982;SDS011;14442;50.196;8.096;2022-11-30T01:41:36;5.73;;;3.93;;
15982;SDS011;14442;50.196;8.096;2022-11-30T01:47:09;9.10;;;4.07;;
15982;SDS011;14442;50.196;8.096;2022-11-30T01:49:39;10.37;;;3.87;;
15982;SDS011;14442;50.196;8.096;2022-11-30T01:52:10;7.87;;;3.90;;
15982;SDS011;14442;50.196;8.096;2022-11-30T01:54:40;6.70;;;4.10;;
15982;SDS011;14442;50.196;8.096;2022-11-30T01:57:10;12.17;;;4.83;;
15982;SDS011;14442;50.196;8.096;2022-11-30T01:59:40;6.70;;;4.40;;
15982;SDS011;14442;50.196;8.096;2022-11-30T02:02:09;9.63;;;4.50;;
15982;SDS011;14442;50.196;8.096;2022-11-30T02:04:36;9.87;;;4.03;;
15982;SDS011;14442;50.196;8.096;2022-11-30T02:07:04;5.90;;;4.43;;
15982;SDS011;14442;50.196;8.096;2022-11-30T02:09:33;5.17;;;4.27;;
15982;SDS011;14442;50.196;8.096;2022-11-30T02:12:05;5.80;;;3.83;;
15982;SDS011;14442;50.196;8.096;2022-11-30T02:14:38;6.97;;;4.13;;
15982;SDS011;14442;50.196;8.096;2022-11-30T02:17:13;4.67;;;4.23;;
15982;SDS011;14442;50.196;8.096;2022-11-30T02:19:59;5.77;;;3.93;;
15982;SDS011;14442;50.196;8.096;2022-11-30T02:22:43;4.57;;;4.13;;
15982;SDS011;14442;50.196;8.096;2022-11-30T02:25:23;4.17;;;3.83;;
15982;SDS011;14442;50.196;8.096;2022-11-30T02:27:59;4.13;;;3.73;;
15982;SDS011;14442;50.196;8.096;2022-11-30T02:30:41;5.77;;;4.27;;
15982;SDS011;14442;50.196;8.096;2022-11-30T02:33:12;4.83;;;4.33;;
15982;SDS011;14442;50.196;8.096;2022-11-30T02:35:43;5.23;;;4.23;;
15982;SDS011;14442;50.196;8.096;2022-11-30T02:38:12;4.57;;;3.97;;
15982;SDS011;14442;50.196;8.096;2022-11-30T02:40:40;4.73;;;4.23;;
15982;SDS011;14442;50.196;8.096;2022-11-30T02:43:06;5.30;;;3.73;;
15982;SDS011;14442;50.196;8.096;2022-11-30T02:45:35;5.07;;;3.93;;
15982;SDS011;14442;50.196;8.096;2022-11-30T02:48:08;4.80;;;4.40;;
15982;SDS011;14442;50.196;8.096;2022-11-30T02:50:37;4.70;;;4.07;;
15982;SDS011;14442;50.196;8.096;2022-11-30T02:53:06;4.87;;;4.27;;
15982;SDS011;14442;50.196;8.096;2022-11-30T02:55:34;5.70;;;4.17;;
15982;SDS011;14442;50.196;8.096;2022-11-30T02:58:01;4.63;;;4.23;;
15982;SDS011;14442;50.196;8.096;2022-11-30T03:00:29;4.27;;;3.97;;
15982;SDS011;14442;50.196;8.096;2022-11-30T03:02:56;4.27;;;3.87;;
15982;SDS011;14442;50.196;8.096;2022-11-30T03:05:24;4.70;;;4.23;;
15982;SDS011;14442;50.196;8.096;2022-11-30T03:07:51;5.17;;;4.67;;
15982;SDS011;14442;50.196;8.096;2022-11-30T03:10:18;4.60;;;4.20;;
15982;SDS011;14442;50.196;8.096;2022-11-30T03:12:44;4.93;;;4.10;;
15982;SDS011;14442;50.196;8.096;2022-11-30T03:15:11;4.47;;;4.10;;
15982;SDS011;14442;50.196;8.096;2022-11-30T03:17:38;5.57;;;4.43;;
15982;SDS011;14442;50.196;8.096;2022-11-30T03:20:05;4.97;;;4.33;;
15982;SDS011;14442;50.196;8.096;2022-11-30T03:22:35;5.47;;;4.97;;
15982;SDS011;14442;50.196;8.096;2022-11-30T03:25:01;4.60;;;4.20;;
15982;SDS011;14442;50.196;8.096;2022-11-30T03:27:28;5.53;;;4.40;;
15982;SDS011;14442;50.196;8.096;2022-11-30T03:29:55;4.73;;;4.33;;
15982;SDS011;14442;50.196;8.096;2022-11-30T03:32:22;4.27;;;3.90;;
15982;SDS011;14442;50.196;8.096;2022-11-30T03:34:48;5.50;;;5.00;;
15982;SDS011;14442;50.196;8.096;2022-11-30T03:37:15;5.60;;;5.00;;
15982;SDS011;14442;50.196;8.096;2022-11-30T03:39:43;5.10;;;4.60;;
15982;SDS011;14442;50.196;8.096;2022-11-30T03:42:10;5.20;;;4.70;;
15982;SDS011;14442;50.196;8.096;2022-11-30T03:44:37;5.30;;;4.80;;
15982;SDS011;14442;50.196;8.096;2022-11-30T03:47:03;5.70;;;5.20;;
15982;SDS011;14442;50.196;8.096;2022-11-30T03:49:30;5.77;;;5.27;;
15982;SDS011;14442;50.196;8.096;2022-11-30T03:51:57;5.37;;;4.97;;
15982;SDS011;14442;50.196;8.096;2022-11-30T03:54:23;5.30;;;4.90;;
15982;SDS011;14442;50.196;8.096;2022-11-30T03:56:51;5.63;;;5.10;;
15982;SDS011;14442;50.196;8.096;2022-11-30T03:59:18;5.30;;;4.80;;
15982;SDS011;14442;50.196;8.096;2022-11-30T04:01:45;5.73;;;5.23;;
15982;SDS011;14442;50.196;8.096;2022-11-30T04:04:11;5.37;;;4.87;;
15982;SDS011;14442;50.196;8.096;2022-11-30T04:06:38;5.03;;;4.63;;
15982;SDS011;14442;50.196;8.096;2022-11-30T04:09:05;5.60;;;5.10;;
15982;SDS011;14442;50.196;8.096;2022-11-30T04:11:32;4.80;;;4.40;;
15982;SDS011;14442;50.196;8.096;2022-11-30T04:14:01;5.43;;;4.93;;
15982;SDS011;14442;50.196;8.096;2022-11-30T04:16:27;4.77;;;4.37;;
15982;SDS011;14442;50.196;8.096;2022-11-30T04:18:54;4.53;;;4.13;;
15982;SDS011;14442;50.196;8.096;2022-11-30T04:21:21;5.17;;;4.77;;
15982;SDS011;14442;50.196;8.096;2022-11-30T04:23:48;4.50;;;4.10;;
15982;SDS011;14442;50.196;8.096;2022-11-30T04:26:15;4.70;;;4.30;;
15982;SDS011;14442;50.196;8.096;2022-11-30T04:28:42;4.60;;;4.20;;
15982;SDS011;14442;50.196;8.096;2022-11-30T04:31:10;4.67;;;4.27;;
15982;SDS011;14442;50.196;8.096;2022-11-30T04:33:38;4.33;;;3.93;;
15982;SDS011;14442;50.196;8.096;2022-11-30T04:36:05;4.20;;;3.90;;
15982;SDS011;14442;50.196;8.096;2022-11-30T04:38:38;4.50;;;4.10;;
15982;SDS011;14442;50.196;8.096;2022-11-30T04:41:05;3.87;;;3.57;;
15982;SDS011;14442;50.196;8.096;2022-11-30T04:43:32;3.83;;;3.53;;
15982;SDS011;14442;50.196;8.096;2022-11-30T04:45:59;3.90;;;3.60;;
15982;SDS011;14442;50.196;8.096;2022-11-30T04:48:27;4.23;;;3.83;;
15982;SDS011;14442;50.196;8.096;2022-11-30T04:50:58;4.00;;;3.60;;
15982;SDS011;14442;50.196;8.096;2022-11-30T04:53:25;3.47;;;3.27;;
15982;SDS011;14442;50.196;8.096;2022-11-30T04:55:52;3.33;;;3.13;;
15982;SDS011;14442;50.196;8.096;2022-11-30T04:58:19;3.80;;;3.50;;
15982;SDS011;14442;50.196;8.096;2022-11-30T05:00:46;3.43;;;3.13;;
15982;SDS011;14442;50.196;8.096;2022-11-30T05:03:12;3.33;;;3.13;;
15982;SDS011;14442;50.196;8.096;2022-11-30T05:05:40;3.37;;;3.17;;
15982;SDS011;14442;50.196;8.096;2022-11-30T05:08:07;3.80;;;3.20;;
15982;SDS011;14442;50.196;8.096;2022-11-30T05:10:34;2.97;;;2.77;;
15982;SDS011;14442;50.196;8.096;2022-11-30T05:13:01;3.43;;;2.93;;
15982;SDS011;14442;50.196;8.096;2022-11-30T05:15:28;3.10;;;2.90;;
15982;SDS011;14442;50.196;8.096;2022-11-30T05:17:56;3.10;;;2.90;;
15982;SDS011;14442;50.196;8.096;2022-11-30T05:20:23;2.47;;;2.30;;
15982;SDS011;14442;50.196;8.096;2022-11-30T05:22:51;2.83;;;2.73;;
15982;SDS011;14442;50.196;8.096;2022-11-30T05:25:18;2.50;;;2.37;;
15982;SDS011;14442;50.196;8.096;2022-11-30T05:27:45;2.40;;;2.20;;
15982;SDS011;14442;50.196;8.096;2022-11-30T05:30:12;3.10;;;2.90;;
15982;SDS011;14442;50.196;8.096;2022-11-30T05:32:39;2.83;;;2.63;;
15982;SDS011;14442;50.196;8.096;2022-11-30T05:35:06;2.30;;;2.20;;
15982;SDS011;14442;50.196;8.096;2022-11-30T05:37:33;2.93;;;2.73;;
15982;SDS011;14442;50.196;8.096;2022-11-30T05:40:01;2.57;;;2.37;;
15982;SDS011;14442;50.196;8.096;2022-11-30T05:42:28;2.30;;;2.17;;
15982;SDS011;14442;50.196;8.096;2022-11-30T05:44:55;2.53;;;2.33;;
15982;SDS011;14442;50.196;8.096;2022-11-30T05:47:21;2.20;;;2.10;;
15982;SDS011;14442;50.196;8.096;2022-11-30T05:49:48;2.93;;;2.73;;
15982;SDS011;14442;50.196;8.096;2022-11-30T05:52:15;2.33;;;2.23;;
15982;SDS011;14442;50.196;8.096;2022-11-30T05:54:42;2.50;;;2.30;;
15982;SDS011;14442;50.196;8.096;2022-11-30T05:57:10;2.70;;;2.50;;
15982;SDS011;14442;50.196;8.096;2022-11-30T05:59:36;2.70;;;2.50;;
15982;SDS011;14442;50.196;8.096;2022-11-30T06:02:03;2.50;;;2.30;;
15982;SDS011;14442;50.196;8.096;2022-11-30T06:04:31;2.40;;;2.30;;
15982;SDS011;14442;50.196;8.096;2022-11-30T06:06:58;2.70;;;2.50;;
15982;SDS011;14442;50.196;8.096;2022-11-30T06:09:24;2.10;;;2.00;;
15982;SDS011;14442;50.196;8.096;2022-11-30T06:11:51;1.97;;;1.87;;
15982;SDS011;14442;50.196;8.096;2022-11-30T06:14:19;2.30;;;2.20;;
15982;SDS011;14442;50.196;8.096;2022-11-30T06:16:46;2.00;;;1.90;;
15982;SDS011;14442;50.196;8.096;2022-11-30T06:19:12;2.40;;;2.20;;
15982;SDS011;14442;50.196;8.096;2022-11-30T06:21:39;2.50;;;2.30;;
15982;SDS011;14442;50.196;8.096;2022-11-30T06:24:06;2.40;;;2.30;;
15982;SDS011;14442;50.196;8.096;2022-11-30T06:26:34;3.00;;;2.80;;
15982;SDS011;14442;50.196;8.096;2022-11-30T06:29:00;2.47;;;2.27;;
15982;SDS011;14442;50.196;8.096;2022-11-30T06:31:29;2.40;;;2.20;;
15982;SDS011;14442;50.196;8.096;2022-11-30T06:33:56;1.93;;;1.83;;
15982;SDS011;14442;50.196;8.096;2022-11-30T06:36:23;2.17;;;2.07;;
15982;SDS011;14442;50.196;8.096;2022-11-30T06:38:50;2.17;;;2.07;;
15982;SDS011;14442;50.196;8.096;2022-11-30T06:41:17;1.83;;;1.73;;
15982;SDS011;14442;50.196;8.096;2022-11-30T06:43:44;2.37;;;2.23;;
15982;SDS011;14442;50.196;8.096;2022-11-30T06:46:11;2.30;;;2.20;;
15982;SDS011;14442;50.196;8.096;2022-11-30T06:48:39;2.30;;;2.20;;
15982;SDS011;14442;50.196;8.096;2022-11-30T06:51:06;1.93;;;1.83;;
15982;SDS011;14442;50.196;8.096;2022-11-30T06:53:33;1.90;;;1.80;;
15982;SDS011;14442;50.196;8.096;2022-11-30T06:56:02;2.00;;;1.90;;
15982;SDS011;14442;50.196;8.096;2022-11-30T06:58:30;2.20;;;2.10;;
15982;SDS011;14442;50.196;8.096;2022-11-30T07:00:57;2.23;;;2.13;;
15982;SDS011;14442;50.196;8.096;2022-11-30T07:03:23;2.67;;;2.47;;
15982;SDS011;14442;50.196;8.096;2022-11-30T07:05:52;2.00;;;1.90;;
15982;SDS011;14442;50.196;8.096;2022-11-30T07:08:19;2.10;;;2.00;;
15982;SDS011;14442;50.196;8.096;2022-11-30T07:10:46;2.20;;;2.03;;
15982;SDS011;14442;50.196;8.096;2022-11-30T07:13:13;3.83;;;1.90;;
15982;SDS011;14442;50.196;8.096;2022-11-30T07:15:42;2.80;;;2.50;;
15982;SDS011;14442;50.196;8.096;2022-11-30T07:18:10;2.43;;;2.23;;
15982;SDS011;14442;50.196;8.096;2022-11-30T07:20:37;2.20;;;2.10;;
15982;SDS011;14442;50.196;8.096;2022-11-30T07:23:06;2.60;;;2.50;;
15982;SDS011;14442;50.196;8.096;2022-11-30T07:25:50;12.03;;;8.80;;
15982;SDS011;14442;50.196;8.096;2022-11-30T07:28:33;6.13;;;4.37;;
15982;SDS011;14442;50.196;8.096;2022-11-30T07:31:01;7.33;;;4.40;;
15982;SDS011;14442;50.196;8.096;2022-11-30T07:33:38;7.23;;;5.90;;
15982;SDS011;14442;50.196;8.096;2022-11-30T07:36:05;6.13;;;5.00;;
15982;SDS011;14442;50.196;8.096;2022-11-30T07:38:33;6.60;;;5.40;;
15982;SDS011;14442;50.196;8.096;2022-11-30T07:41:00;6.83;;;5.87;;
15982;SDS011;14442;50.196;8.096;2022-11-30T07:43:27;7.10;;;5.83;;
15982;SDS011;14442;50.196;8.096;2022-11-30T07:45:53;7.57;;;5.97;;
15982;SDS011;14442;50.196;8.096;2022-11-30T07:48:20;8.10;;;6.30;;
15982;SDS011;14442;50.196;8.096;2022-11-30T07:50:47;7.63;;;6.30;;
15982;SDS011;14442;50.196;8.096;2022-11-30T07:53:14;7.07;;;6.00;;
15982;SDS011;14442;50.196;8.096;2022-11-30T07:55:43;7.37;;;6.07;;
15982;SDS011;14442;50.196;8.096;2022-11-30T07:58:09;7.73;;;6.20;;
15982;SDS011;14442;50.196;8.096;2022-11-30T08:00:37;7.90;;;5.97;;
15982;SDS011;14442;50.196;8.096;2022-11-30T08:03:03;7.80;;;5.93;;
15982;SDS011;14442;50.196;8.096;2022-11-30T08:05:30;6.17;;;5.57;;
15982;SDS011;14442;50.196;8.096;2022-11-30T08:07:57;6.77;;;5.40;;
15982;SDS011;14442;50.196;8.096;2022-11-30T08:10:24;7.10;;;5.60;;
15982;SDS011;14442;50.196;8.096;2022-11-30T08:12:52;6.17;;;5.40;;
15982;SDS011;14442;50.196;8.096;2022-11-30T08:15:18;6.83;;;5.77;;
15982;SDS011;14442;50.196;8.096;2022-11-30T08:17:45;6.63;;;5.60;;
15982;SDS011;14442;50.196;8.096;2022-11-30T08:20:14;5.93;;;5.33;;
15982;SDS011;14442;50.196;8.096;2022-11-30T08:22:41;6.17;;;5.43;;
15982;SDS011;14442;50.196;8.096;2022-11-30T08:25:08;5.27;;;4.53;;
15982;SDS011;14442;50.196;8.096;2022-11-30T08:27:34;6.03;;;5.43;;
15982;SDS011;14442;50.196;8.096;2022-11-30T08:30:03;5.93;;;4.87;;
15982;SDS011;14442;50.196;8.096;2022-11-30T08:32:30;5.30;;;4.80;;
15982;SDS011;14442;50.196;8.096;2022-11-30T08:34:57;6.00;;;5.30;;
15982;SDS011;14442;50.196;8.096;2022-11-30T08:37:23;5.80;;;5.20;;
15982;SDS011;14442;50.196;8.096;2022-11-30T08:39:50;4.90;;;4.40;;
15982;SDS011;14442;50.196;8.096;2022-11-30T08:42:17;5.00;;;4.33;;
15982;SDS011;14442;50.196;8.096;2022-11-30T08:44:44;5.03;;;4.53;;
15982;SDS011;14442;50.196;8.096;2022-11-30T08:47:13;4.03;;;3.67;;
15982;SDS011;14442;50.196;8.096;2022-11-30T08:49:40;4.27;;;3.67;;
15982;SDS011;14442;50.196;8.096;2022-11-30T08:52:06;5.33;;;4.40;;
15982;SDS011;14442;50.196;8.096;2022-11-30T08:54:33;3.90;;;3.47;;
15982;SDS011;14442;50.196;8.096;2022-11-30T08:57:00;3.20;;;2.90;;
15982;SDS011;14442;50.196;8.096;2022-11-30T08:59:29;3.73;;;3.43;;
15982;SDS011;14442;50.196;8.096;2022-11-30T09:01:56;4.03;;;3.63;;
15982;SDS011;14442;50.196;8.096;2022-11-30T09:04:24;3.90;;;3.60;;
15982;SDS011;14442;50.196;8.096;2022-11-30T09:06:51;5.20;;;4.00;;
15982;SDS011;14442;50.196;8.096;2022-11-30T09:09:17;3.97;;;3.67;;
15982;SDS011;14442;50.196;8.096;2022-11-30T09:11:44;4.60;;;3.37;;
15982;SDS011;14442;50.196;8.096;2022-11-30T09:14:11;3.87;;;3.47;;
15982;SDS011;14442;50.196;8.096;2022-11-30T09:16:38;3.90;;;3.60;;
15982;SDS011;14442;50.196;8.096;2022-11-30T09:19:04;3.80;;;3.33;;
15982;SDS011;14442;50.196;8.096;2022-11-30T09:21:33;4.20;;;2.93;;
15982;SDS011;14442;50.196;8.096;2022-11-30T09:23:59;3.60;;;3.30;;
15982;SDS011;14442;50.196;8.096;2022-11-30T09:26:26;3.53;;;3.23;;
15982;SDS011;14442;50.196;8.096;2022-11-30T09:28:53;3.10;;;2.80;;
15982;SDS011;14442;50.196;8.096;2022-11-30T09:31:20;3.60;;;2.60;;
15982;SDS011;14442;50.196;8.096;2022-11-30T09:33:49;4.10;;;3.27;;
15982;SDS011;14442;50.196;8.096;2022-11-30T09:36:17;5.40;;;3.30;;
15982;SDS011;14442;50.196;8.096;2022-11-30T09:38:46;6.90;;;3.53;;
15982;SDS011;14442;50.196;8.096;2022-11-30T09:41:19;7.57;;;3.80;;
15982;SDS011;14442;50.196;8.096;2022-11-30T09:44:05;5.97;;;3.73;;
15982;SDS011;14442;50.196;8.096;2022-11-30T09:46:38;7.77;;;4.07;;
15982;SDS011;14442;50.196;8.096;2022-11-30T09:49:10;5.57;;;3.27;;
15982;SDS011;14442;50.196;8.096;2022-11-30T09:51:43;9.03;;;3.50;;
15982;SDS011;14442;50.196;8.096;2022-11-30T09:54:13;9.50;;;4.13;;
15982;SDS011;14442;50.196;8.096;2022-11-30T09:56:42;10.90;;;4.10;;
15982;SDS011;14442;50.196;8.096;2022-11-30T09:59:12;8.23;;;4.20;;
15982;SDS011;14442;50.196;8.096;2022-11-30T10:01:44;12.77;;;3.17;;
15982;SDS011;14442;50.196;8.096;2022-11-30T10:04:16;6.07;;;3.37;;
15982;SDS011;14442;50.196;8.096;2022-11-30T10:06:49;10.30;;;3.70;;
15982;SDS011;14442;50.196;8.096;2022-11-30T10:09:28;9.43;;;4.57;;
15982;SDS011;14442;50.196;8.096;2022-11-30T10:12:04;10.90;;;5.23;;
15982;SDS011;14442;50.196;8.096;2022-11-30T10:14:46;9.97;;;6.50;;
15982;SDS011;14442;50.196;8.096;2022-11-30T10:17:32;12.77;;;5.93;;
15982;SDS011;14442;50.196;8.096;2022-11-30T10:20:13;6.97;;;4.90;;
15982;SDS011;14442;50.196;8.096;2022-11-30T10:22:59;7.90;;;5.10;;
15982;SDS011;14442;50.196;8.096;2022-11-30T10:25:36;8.43;;;4.13;;
15982;SDS011;14442;50.196;8.096;2022-11-30T10:28:14;8.20;;;5.00;;
15982;SDS011;14442;50.196;8.096;2022-11-30T10:30:42;7.33;;;4.37;;
15982;SDS011;14442;50.196;8.096;2022-11-30T10:33:12;5.00;;;3.73;;
15982;SDS011;14442;50.196;8.096;2022-11-30T10:35:43;8.07;;;4.07;;
15982;SDS011;14442;50.196;8.096;2022-11-30T10:38:15;6.07;;;3.83;;
15982;SDS011;14442;50.196;8.096;2022-11-30T10:40:50;5.77;;;3.67;;
15982;SDS011;14442;50.196;8.096;2022-11-30T10:43:24;3.50;;;3.03;;
15982;SDS011;14442;50.196;8.096;2022-11-30T10:45:54;6.43;;;3.90;;
15982;SDS011;14442;50.196;8.096;2022-11-30T10:48:23;5.53;;;3.40;;
15982;SDS011;14442;50.196;8.096;2022-11-30T10:50:57;5.30;;;2.80;;
15982;SDS011;14442;50.196;8.096;2022-11-30T10:53:26;4.60;;;3.03;;
15982;SDS011;14442;50.196;8.096;2022-11-30T10:55:59;6.63;;;2.90;;
15982;SDS011;14442;50.196;8.096;2022-11-30T10:58:28;5.90;;;2.80;;
15982;SDS011;14442;50.196;8.096;2022-11-30T11:01:00;6.53;;;3.00;;
15982;SDS011;14442;50.196;8.096;2022-11-30T11:03:28;6.23;;;3.30;;
15982;SDS011;14442;50.196;8.096;2022-11-30T11:06:02;2.93;;;2.70;;
15982;SDS011;14442;50.196;8.096;2022-11-30T11:08:31;2.30;;;2.10;;
15982;SDS011;14442;50.196;8.096;2022-11-30T11:11:00;4.13;;;3.43;;
15982;SDS011;14442;50.196;8.096;2022-11-30T11:13:37;4.67;;;4.27;;
15982;SDS011;14442;50.196;8.096;2022-11-30T11:16:06;4.10;;;3.70;;
15982;SDS011;14442;50.196;8.096;2022-11-30T11:18:34;5.60;;;3.70;;
15982;SDS011;14442;50.196;8.096;2022-11-30T11:21:03;3.10;;;2.80;;
15982;SDS011;14442;50.196;8.096;2022-11-30T11:23:32;2.90;;;2.70;;
15982;SDS011;14442;50.196;8.096;2022-11-30T11:26:02;2.53;;;2.30;;
15982;SDS011;14442;50.196;8.096;2022-11-30T11:28:30;2.40;;;2.20;;
15982;SDS011;14442;50.196;8.096;2022-11-30T11:30:57;2.93;;;2.60;;
15982;SDS011;14442;50.196;8.096;2022-11-30T11:33:24;5.50;;;2.80;;
15982;SDS011;14442;50.196;8.096;2022-11-30T11:35:53;5.27;;;2.23;;
15982;SDS011;14442;50.196;8.096;2022-11-30T11:38:25;2.47;;;2.27;;
15982;SDS011;14442;50.196;8.096;2022-11-30T11:40:53;3.77;;;2.03;;
15982;SDS011;14442;50.196;8.096;2022-11-30T11:43:23;4.97;;;2.30;;
15982;SDS011;14442;50.196;8.096;2022-11-30T11:45:54;6.23;;;2.00;;
15982;SDS011;14442;50.196;8.096;2022-11-30T11:48:26;5.87;;;1.83;;
15982;SDS011;14442;50.196;8.096;2022-11-30T11:50:56;3.80;;;1.80;;
15982;SDS011;14442;50.196;8.096;2022-11-30T11:53:23;7.50;;;2.70;;
15982;SDS011;14442;50.196;8.096;2022-11-30T11:56:09;5.63;;;2.10;;
15982;SDS011;14442;50.196;8.096;2022-11-30T11:58:44;9.93;;;1.80;;
15982;SDS011;14442;50.196;8.096;2022-11-30T12:01:18;13.57;;;2.83;;
15982;SDS011;14442;50.196;8.096;2022-11-30T12:04:05;5.17;;;1.90;;
15982;SDS011;14442;50.196;8.096;2022-11-30T12:06:45;5.50;;;1.87;;
15982;SDS011;14442;50.196;8.096;2022-11-30T12:09:16;7.30;;;2.03;;
15982;SDS011;14442;50.196;8.096;2022-11-30T12:11:47;4.40;;;1.77;;
15982;SDS011;14442;50.196;8.096;2022-11-30T12:14:16;8.00;;;1.77;;
15982;SDS011;14442;50.196;8.096;2022-11-30T12:16:56;5.37;;;1.67;;
15982;SDS011;14442;50.196;8.096;2022-11-30T12:19:32;4.90;;;1.47;;
15982;SDS011;14442;50.196;8.096;2022-11-30T12:22:05;5.37;;;1.60;;
15982;SDS011;14442;50.196;8.096;2022-11-30T12:24:46;4.53;;;1.70;;
15982;SDS011;14442;50.196;8.096;2022-11-30T12:27:44;3.30;;;1.13;;
15982;SDS011;14442;50.196;8.096;2022-11-30T12:30:20;7.00;;;1.57;;
15982;SDS011;14442;50.196;8.096;2022-11-30T12:32:58;6.23;;;1.80;;
15982;SDS011;14442;50.196;8.096;2022-11-30T12:35:35;7.03;;;2.13;;
15982;SDS011;14442;50.196;8.096;2022-11-30T12:38:10;4.93;;;1.30;;
15982;SDS011;14442;50.196;8.096;2022-11-30T12:40:45;4.10;;;1.40;;
15982;SDS011;14442;50.196;8.096;2022-11-30T12:43:19;13.30;;;2.70;;
15982;SDS011;14442;50.196;8.096;2022-11-30T12:45:57;8.00;;;1.60;;
15982;SDS011;14442;50.196;8.096;2022-11-30T12:48:33;8.43;;;1.87;;
15982;SDS011;14442;50.196;8.096;2022-11-30T12:51:09;4.60;;;1.30;;
15982;SDS011;14442;50.196;8.096;2022-11-30T12:53:44;9.77;;;2.10;;
15982;SDS011;14442;50.196;8.096;2022-11-30T12:56:21;10.23;;;2.03;;
15982;SDS011;14442;50.196;8.096;2022-11-30T12:58:58;6.30;;;2.20;;
15982;SDS011;14442;50.196;8.096;2022-11-30T13:01:39;11.50;;;2.23;;
15982;SDS011;14442;50.196;8.096;2022-11-30T13:04:14;6.43;;;1.30;;
15982;SDS011;14442;50.196;8.096;2022-11-30T13:06:45;4.37;;;1.63;;
15982;SDS011;14442;50.196;8.096;2022-11-30T13:09:17;3.53;;;1.43;;
15982;SDS011;14442;50.196;8.096;2022-11-30T13:11:50;6.47;;;1.50;;
15982;SDS011;14442;50.196;8.096;2022-11-30T13:14:22;4.17;;;1.57;;
15982;SDS011;14442;50.196;8.096;2022-11-30T13:16:53;4.03;;;1.70;;
15982;SDS011;14442;50.196;8.096;2022-11-30T13:19:28;3.27;;;1.40;;
15982;SDS011;14442;50.196;8.096;2022-11-30T13:22:23;3.90;;;1.60;;
15982;SDS011;14442;50.196;8.096;2022-11-30T13:24:58;10.93;;;2.10;;
15982;SDS011;14442;50.196;8.096;2022-11-30T13:27:31;10.67;;;2.13;;
15982;SDS011;14442;50.196;8.096;2022-11-30T13:32:57;12.80;;;3.10;;
15982;SDS011;14442;50.196;8.096;2022-11-30T13:35:52;6.30;;;3.63;;
15982;SDS011;14442;50.196;8.096;2022-11-30T13:38:19;7.63;;;3.80;;
15982;SDS011;14442;50.196;8.096;2022-11-30T13:40:53;11.03;;;4.60;;
15982;SDS011;14442;50.196;8.096;2022-11-30T13:43:22;11.73;;;3.93;;
15982;SDS011;14442;50.196;8.096;2022-11-30T13:46:02;5.83;;;3.57;;
15982;SDS011;14442;50.196;8.096;2022-11-30T13:48:39;6.63;;;3.73;;
15982;SDS011;14442;50.196;8.096;2022-11-30T13:51:07;5.40;;;3.40;;
15982;SDS011;14442;50.196;8.096;2022-11-30T13:53:36;5.30;;;3.13;;
15982;SDS011;14442;50.196;8.096;2022-11-30T13:56:04;6.60;;;4.43;;
15982;SDS011;14442;50.196;8.096;2022-11-30T14:01:47;6.07;;;4.33;;
15982;SDS011;14442;50.196;8.096;2022-11-30T14:10:00;4.93;;;3.83;;
15982;SDS011;14442;50.196;8.096;2022-11-30T14:12:42;6.03;;;4.50;;
15982;SDS011;14442;50.196;8.096;2022-11-30T14:15:28;5.97;;;3.87;;
15982;SDS011;14442;50.196;8.096;2022-11-30T14:18:15;8.57;;;3.93;;
15982;SDS011;14442;50.196;8.096;2022-11-30T14:20:47;5.33;;;3.20;;
15982;SDS011;14442;50.196;8.096;2022-11-30T14:23:18;4.37;;;2.70;;
15982;SDS011;14442;50.196;8.096;2022-11-30T14:25:48;4.03;;;2.63;;
15982;SDS011;14442;50.196;8.096;2022-11-30T14:28:16;3.87;;;2.33;;
15982;SDS011;14442;50.196;8.096;2022-11-30T14:30:45;5.10;;;2.77;;
15982;SDS011;14442;50.196;8.096;2022-11-30T14:33:14;4.00;;;2.30;;
15982;SDS011;14442;50.196;8.096;2022-11-30T14:35:52;4.33;;;2.30;;
15982;SDS011;14442;50.196;8.096;2022-11-30T14:38:23;3.13;;;2.47;;
15982;SDS011;14442;50.196;8.096;2022-11-30T14:40:51;2.50;;;2.30;;
15982;SDS011;14442;50.196;8.096;2022-11-30T14:43:19;3.77;;;2.27;;
15982;SDS011;14442;50.196;8.096;2022-11-30T14:45:55;2.07;;;1.87;;
15982;SDS011;14442;50.196;8.096;2022-11-30T14:48:22;2.77;;;2.13;;
15982;SDS011;14442;50.196;8.096;2022-11-30T14:50:50;2.73;;;2.47;;
15982;SDS011;14442;50.196;8.096;2022-11-30T14:53:23;1.83;;;1.73;;
15982;SDS011;14442;50.196;8.096;2022-11-30T14:55:58;2.37;;;2.13;;
15982;SDS011;14442;50.196;8.096;2022-11-30T14:58:33;5.30;;;2.57;;
15982;SDS011;14442;50.196;8.096;2022-11-30T15:01:12;2.90;;;2.60;;
15982;SDS011;14442;50.196;8.096;2022-11-30T15:03:43;3.63;;;2.10;;
15982;SDS011;14442;50.196;8.096;2022-11-30T15:06:12;2.10;;;2.00;;
15982;SDS011;14442;50.196;8.096;2022-11-30T15:08:42;3.33;;;2.80;;
15982;SDS011;14442;50.196;8.096;2022-11-30T15:11:12;2.43;;;2.27;;
15982;SDS011;14442;50.196;8.096;2022-11-30T15:13:40;3.40;;;2.67;;
15982;SDS011;14442;50.196;8.096;2022-11-30T15:16:09;2.53;;;2.33;;
15982;SDS011;14442;50.196;8.096;2022-11-30T15:18:42;2.10;;;2.00;;